createdAt,value
2023-03-01T00:04:53.234Z,22.25
2023-03-01T00:09:54.910Z,23.35
2023-03-01T00:14:56.563Z,23.67
2023-03-01T00:19:59.678Z,23.25
2023-03-01T00:25:01.390Z,24.70
2023-03-01T00:30:03.542Z,24.20
2023-03-01T00:35:07.177Z,24.40
2023-03-01T00:40:10.112Z,22.60
2023-03-01T00:45:12.008Z,23.83
2023-03-01T00:50:15.572Z,23.42
2023-03-01T00:55:17.346Z,24.13
2023-03-01T01:00:20.199Z,24.70
2023-03-01T01:05:23.330Z,22.90
2023-03-01T01:10:25.132Z,23.98
2023-03-01T01:15:27.062Z,23.60
2023-03-01T01:20:30.668Z,24.33
2023-03-01T01:25:35.532Z,22.40
2023-03-01T01:30:37.356Z,23.33
2023-03-01T01:35:40.582Z,22.90
2023-03-01T01:40:45.646Z,23.70
2023-03-01T01:45:47.673Z,22.60
2023-03-01T01:50:56.310Z,24.17
2023-03-01T01:56:01.950Z,22.50
2023-03-01T02:01:04.931Z,23.62
2023-03-01T02:06:13.691Z,24.77
2023-03-01T02:11:15.818Z,23.42
2023-03-01T02:16:18.262Z,23.92
2023-03-01T02:21:36.846Z,24.12
2023-03-01T02:26:43.622Z,24.23
2023-03-01T02:31:46.878Z,24.52
2023-03-01T02:36:51.992Z,24.37
2023-03-01T02:41:55.631Z,24.77
2023-03-01T02:47:03.450Z,25.33
2023-03-01T02:52:39.635Z,26.00
2023-03-01T02:57:44.723Z,25.25
2023-03-01T03:02:48.765Z,25.13
2023-03-01T03:07:51.065Z,26.27
2023-03-01T03:12:55.244Z,22.52
2023-03-01T03:17:59.761Z,23.40
2023-03-01T03:23:02.113Z,24.90
2023-03-01T03:28:04.475Z,25.40
2023-03-01T03:33:08.440Z,26.77
2023-03-01T03:38:12.732Z,24.85
2023-03-01T03:43:17.694Z,25.37
2023-03-01T03:48:21.564Z,25.35
2023-03-01T03:53:25.622Z,26.33
2023-03-01T03:58:27.650Z,25.85
2023-03-01T04:03:31.943Z,26.30
2023-03-01T04:08:33.685Z,25.33
2023-03-01T04:13:35.332Z,26.45
2023-03-01T04:18:38.508Z,24.15
2023-03-01T04:23:40.609Z,26.52
2023-03-01T04:28:43.764Z,26.00
2023-03-01T04:33:49.093Z,27.60
2023-03-01T04:38:51.183Z,26.87
2023-03-01T04:43:52.981Z,26.33
2023-03-01T04:48:56.167Z,27.92
2023-03-01T04:53:57.930Z,26.15
2023-03-01T04:58:59.649Z,25.75
2023-03-01T05:04:02.804Z,27.62
2023-03-01T05:09:04.522Z,25.65
2023-03-01T05:14:08.037Z,27.27
2023-03-01T05:19:11.118Z,27.70
2023-03-01T05:24:12.789Z,26.58
2023-03-01T05:29:14.453Z,27.67
2023-03-01T05:34:17.613Z,27.58
2023-03-01T05:39:19.835Z,25.52
2023-03-01T05:44:22.131Z,26.65
2023-03-01T05:49:25.454Z,28.08
2023-03-01T05:54:27.374Z,26.45
2023-03-01T05:59:29.505Z,26.73
2023-03-01T06:04:32.552Z,28.23
2023-03-01T06:09:34.300Z,26.27
2023-03-01T06:14:35.945Z,25.90
2023-03-01T06:19:39.147Z,26.23
2023-03-01T06:24:40.832Z,26.15
2023-03-01T06:29:42.786Z,27.05
2023-03-01T06:34:46.000Z,26.37
2023-03-01T06:39:47.699Z,26.25
2023-03-01T06:44:49.372Z,26.65
2023-03-01T06:49:52.497Z,27.48
2023-03-01T06:54:54.146Z,26.30
2023-03-01T06:59:55.973Z,26.23
2023-03-01T07:04:59.026Z,25.92
2023-03-01T07:10:00.733Z,26.42
2023-03-01T07:15:02.461Z,28.27
2023-03-01T07:20:06.362Z,25.25
2023-03-01T07:25:08.875Z,26.67
2023-03-01T07:30:11.634Z,26.70
2023-03-01T07:35:14.826Z,26.05
2023-03-01T07:40:16.833Z,26.15
2023-03-01T07:45:18.574Z,26.35
2023-03-01T07:50:22.259Z,27.83
2023-03-01T07:55:23.966Z,26.87
2023-03-01T08:00:25.796Z,25.15
2023-03-01T08:05:29.389Z,26.87
2023-03-01T08:10:31.051Z,28.73
2023-03-01T08:15:32.813Z,27.50
2023-03-01T08:20:35.852Z,26.87
2023-03-01T08:25:37.771Z,25.98
2023-03-01T08:30:39.454Z,25.48
2023-03-01T08:35:42.518Z,26.42
2023-03-01T08:40:44.262Z,24.65
2023-03-01T08:45:46.118Z,24.73
2023-03-01T08:50:49.231Z,26.67
2023-03-01T08:55:50.949Z,26.37
2023-03-01T09:00:52.614Z,26.02
2023-03-01T09:06:01.278Z,26.23
2023-03-01T09:11:03.677Z,25.23
2023-03-01T09:16:07.867Z,25.62
2023-03-01T09:21:13.886Z,25.90
2023-03-01T09:26:17.906Z,26.83
2023-03-01T09:31:21.520Z,26.63
2023-03-01T09:36:25.735Z,25.05
2023-03-01T09:41:44.981Z,25.17
2023-03-01T09:46:47.462Z,26.15
2023-03-01T09:52:04.451Z,25.85
2023-03-01T09:57:15.593Z,25.02
2023-03-01T10:02:29.175Z,26.20
2023-03-01T10:07:43.716Z,25.95
2023-03-01T10:12:49.639Z,25.30
2023-03-01T10:17:57.018Z,25.23
2023-03-01T10:23:02.375Z,25.05
2023-03-01T10:28:11.566Z,25.70
2023-03-01T10:33:18.809Z,25.60
2023-03-01T10:38:22.296Z,24.67
2023-03-01T10:43:25.110Z,25.88
2023-03-01T10:48:28.049Z,26.75
2023-03-01T10:53:34.977Z,25.83
2023-03-01T10:58:38.876Z,23.58
2023-03-01T11:03:40.572Z,24.23
2023-03-01T11:08:45.344Z,24.73
2023-03-01T11:13:52.883Z,25.95
2023-03-01T11:18:59.411Z,25.08
2023-03-01T11:24:05.044Z,24.87
2023-03-01T11:29:13.650Z,26.30
2023-03-01T11:34:21.745Z,23.87
2023-03-01T11:39:32.064Z,24.48
2023-03-01T11:44:37.585Z,24.42
2023-03-01T11:50:01.667Z,24.67
2023-03-01T11:55:20.303Z,24.48
2023-03-01T12:00:37.479Z,24.12
2023-03-01T12:06:13.761Z,23.55
2023-03-01T12:11:28.831Z,21.55
2023-03-01T12:16:56.789Z,23.05
2023-03-01T12:22:29.754Z,22.00
2023-03-01T12:27:49.893Z,21.42
2023-03-01T12:33:05.133Z,21.27
2023-03-01T12:43:28.211Z,19.25
2023-03-01T12:48:40.353Z,20.83
2023-03-01T12:53:47.473Z,21.40
2023-03-01T12:59:00.435Z,21.40
2023-03-01T13:04:20.236Z,21.02
2023-03-01T13:09:28.875Z,21.67
2023-03-01T13:14:46.161Z,20.12
2023-03-01T13:19:57.866Z,21.25
2023-03-01T13:25:13.014Z,20.50
2023-03-01T13:30:42.694Z,20.05
2023-03-01T13:35:45.800Z,20.90
2023-03-01T13:41:00.764Z,19.70
2023-03-01T13:46:11.475Z,19.87
2023-03-01T13:51:13.360Z,18.87
2023-03-01T13:56:18.549Z,18.52
2023-03-01T14:01:28.640Z,19.65
2023-03-01T14:06:32.958Z,20.08
2023-03-01T14:12:00.800Z,19.55
2023-03-01T14:17:16.963Z,19.48
2023-03-01T14:22:23.468Z,20.27
2023-03-01T14:27:27.853Z,19.77
2023-03-01T14:32:32.834Z,19.97
2023-03-01T14:37:35.781Z,22.87
2023-03-01T14:42:37.936Z,19.73
2023-03-01T14:47:43.471Z,19.65
2023-03-01T14:52:49.229Z,19.58
2023-03-01T14:57:52.381Z,19.20
2023-03-01T15:02:57.118Z,19.45
2023-03-01T15:08:00.719Z,20.20
2023-03-01T15:13:12.647Z,19.75
2023-03-01T15:18:19.186Z,18.50
2023-03-01T15:23:24.613Z,19.73
2023-03-01T15:28:29.293Z,21.73
2023-03-01T15:33:36.412Z,20.85
2023-03-01T15:38:53.431Z,20.25
2023-03-01T15:43:55.898Z,20.73
2023-03-01T15:49:01.724Z,21.00
2023-03-01T15:54:07.110Z,20.00
2023-03-01T15:59:11.585Z,20.67
2023-03-01T16:04:16.593Z,19.75
2023-03-01T16:14:20.224Z,20.20
2023-03-01T16:19:23.410Z,19.12
2023-03-01T16:24:25.337Z,19.98
2023-03-01T16:29:27.039Z,18.65
2023-03-01T16:34:30.089Z,17.73
2023-03-01T16:39:31.825Z,19.52
2023-03-01T16:44:33.557Z,20.02
2023-03-01T16:49:39.870Z,20.23
2023-03-01T16:54:41.560Z,21.48
2023-03-01T16:59:43.298Z,20.80
2023-03-01T17:04:46.616Z,19.92
2023-03-01T17:09:48.682Z,21.45
2023-03-01T17:14:50.943Z,20.15
2023-03-01T17:19:54.031Z,21.48
2023-03-01T17:24:55.736Z,21.48
2023-03-01T17:29:57.541Z,19.92
2023-03-01T17:35:00.932Z,20.88
2023-03-01T17:40:03.310Z,21.42
2023-03-01T17:45:06.428Z,21.35
2023-03-01T17:50:11.103Z,20.30
2023-03-01T17:55:12.810Z,21.80
2023-03-01T18:00:17.227Z,20.90
2023-03-01T18:05:20.316Z,21.95
2023-03-01T18:10:22.109Z,21.62
2023-03-01T18:15:23.803Z,22.27
2023-03-01T18:20:27.884Z,20.83
2023-03-01T18:25:29.681Z,22.43
2023-03-01T18:30:43.582Z,22.58
2023-03-01T18:35:46.957Z,21.00
2023-03-01T18:40:49.074Z,22.48
2023-03-01T18:45:57.344Z,21.67
2023-03-01T18:51:17.153Z,20.02
2023-03-01T18:56:19.230Z,24.20
2023-03-01T19:01:23.257Z,22.15
2023-03-01T19:06:30.131Z,24.03
2023-03-01T19:23:10.768Z,22.27
2023-03-01T19:28:13.971Z,21.62
2023-03-01T19:33:15.725Z,22.75
2023-03-01T19:38:18.863Z,22.35
2023-03-01T19:43:49.877Z,21.33
2023-03-01T19:48:52.673Z,21.40
2023-03-01T19:53:55.938Z,22.15
2023-03-01T19:59:00.702Z,20.85
2023-03-01T20:04:03.701Z,21.87
2023-03-01T20:09:20.288Z,22.52
2023-03-01T20:14:24.251Z,22.48
2023-03-01T20:19:26.165Z,23.05
2023-03-01T20:24:29.279Z,23.25
2023-03-01T20:29:31.994Z,22.23
2023-03-01T20:34:33.736Z,21.35
2023-03-01T20:40:24.984Z,22.83
2023-03-01T20:45:39.526Z,23.42
2023-03-01T20:51:08.089Z,24.17
2023-03-01T20:56:39.230Z,23.38
2023-03-01T21:02:05.022Z,24.33
2023-03-01T21:30:24.148Z,23.47
2023-03-01T21:41:02.477Z,23.98
2023-03-01T21:51:34.575Z,23.70
2023-03-01T21:56:36.463Z,22.80
2023-03-01T22:01:38.278Z,24.00
2023-03-01T22:06:42.987Z,22.52
2023-03-01T22:16:48.464Z,25.70
2023-03-01T22:21:52.891Z,22.23
2023-03-01T22:26:55.197Z,23.52
2023-03-01T22:31:58.000Z,23.15
2023-03-01T22:37:01.173Z,23.00
2023-03-01T22:42:02.962Z,22.45
2023-03-01T22:47:04.797Z,23.00
2023-03-01T22:52:07.918Z,23.30
2023-03-01T22:57:09.700Z,24.63
2023-03-01T23:02:11.514Z,23.23
2023-03-01T23:07:14.761Z,24.95
2023-03-01T23:12:16.532Z,24.08
2023-03-01T23:17:18.307Z,23.70
2023-03-01T23:22:21.535Z,23.35
2023-03-01T23:27:23.255Z,23.77
2023-03-01T23:32:25.142Z,23.48
2023-03-01T23:37:30.931Z,23.77
2023-03-01T23:42:33.126Z,23.25
2023-03-01T23:47:35.025Z,24.45
2023-03-01T23:52:39.392Z,23.02
2023-03-01T23:57:41.230Z,22.95
